createdAt,value
2022-10-11T00:06:48.132Z,8.30
2022-10-11T00:44:09.798Z,9.90
2022-10-11T01:02:47.800Z,9.80
2022-10-11T01:40:07.093Z,9.10
2022-10-11T01:58:48.352Z,8.30
2022-10-11T02:17:27.782Z,11.00
2022-10-11T02:36:08.783Z,8.40
2022-10-11T02:54:47.504Z,8.50
2022-10-11T03:13:28.135Z,8.70
2022-10-11T03:32:08.407Z,11.30
2022-10-11T03:50:48.469Z,8.60
2022-10-11T04:09:29.178Z,10.30
2022-10-11T04:28:09.924Z,9.90
2022-10-11T04:46:50.560Z,10.30
2022-10-11T05:05:31.880Z,9.60
2022-10-11T05:24:11.922Z,10.80
2022-10-11T05:42:54.922Z,12.90
2022-10-11T06:01:33.105Z,12.40
2022-10-11T06:20:14.593Z,11.00
2022-10-11T06:38:55.298Z,14.30
2022-10-11T06:57:36.658Z,11.30
2022-10-11T07:16:17.891Z,15.10
2022-10-11T07:35:03.364Z,11.90
2022-10-11T07:53:43.127Z,7.40
2022-10-11T08:12:25.131Z,7.60
2022-10-11T08:31:10.924Z,7.10
2022-10-11T08:49:53.743Z,5.50
2022-10-11T09:08:44.528Z,4.20
2022-10-11T09:27:50.156Z,5.70
2022-10-11T10:04:55.496Z,3.80
2022-10-11T10:23:47.008Z,3.90
2022-10-11T10:42:34.306Z,4.20
2022-10-11T11:01:14.165Z,3.40
2022-10-11T11:20:04.678Z,3.00
2022-10-11T11:38:49.499Z,2.30
2022-10-11T11:57:35.855Z,1.20
2022-10-11T12:16:18.295Z,2.50
2022-10-11T12:35:04.293Z,1.50
2022-10-11T12:54:08.156Z,1.50
2022-10-11T13:12:27.046Z,1.90
2022-10-11T13:31:09.225Z,4.60
2022-10-11T13:49:43.551Z,1.50
2022-10-11T14:08:24.355Z,1.50
2022-10-11T14:27:09.479Z,2.20
2022-10-11T14:45:39.303Z,1.30
2022-10-11T15:04:17.263Z,2.50
2022-10-11T15:22:52.078Z,1.70
2022-10-11T15:41:19.310Z,3.90
2022-10-11T15:59:48.751Z,2.40
2022-10-11T16:36:53.898Z,3.20
2022-10-11T16:55:30.962Z,3.90
2022-10-11T17:14:09.244Z,4.70
2022-10-11T17:51:25.813Z,3.90
2022-10-11T18:10:04.499Z,7.40
2022-10-11T18:28:43.945Z,7.40
2022-10-11T18:47:18.880Z,4.20
2022-10-11T19:05:57.074Z,3.80
2022-10-11T19:43:15.498Z,8.60
2022-10-11T20:01:53.537Z,4.90
2022-10-11T20:20:32.234Z,6.40
2022-10-11T20:39:11.888Z,8.30
2022-10-11T20:57:52.414Z,5.00
2022-10-11T21:16:28.427Z,5.90
2022-10-11T21:35:07.723Z,7.30
2022-10-11T21:53:46.403Z,6.20
2022-10-11T22:12:26.526Z,7.10
2022-10-11T22:31:09.147Z,6.40
2022-10-11T22:49:46.058Z,5.90
2022-10-11T23:08:24.492Z,7.10
2022-10-11T23:27:04.802Z,6.80
2022-10-11T23:45:44.844Z,7.10
